Denio, Nevada
Current Conditions -  °F | °C
As of 8:56 PM on Friday 28 Nov 2014 (Local Time) from KWMC Reporting Station
Clear Clear  
Wind Chill: 42°   Ceiling: Unl
Heat Index: 47°   Visibility: 7mi
Dew Point:   Wind: 10mph
Humidity: 14%   Direction: 10°N
Pressure: 29.76"   Gusts: NA
Location:  41.99°N, 118.63°W
Report Text: KWMC 290456Z AUTO 01009KT 7SM CLR 08/M18 A2976 RMK AO2 SLP063 T00831178
Loading
Personal Weather Stations






























Interactive Weather Map New forecast layout! Learn more

10-Day Weather Forecast

Advertisements
Track Severe Weather on mobile